createdAt,value
2018-11-21T00:01:31.395Z,128.67
2018-11-21T00:04:11.775Z,135.87
2018-11-21T00:06:51.420Z,132.43
2018-11-21T00:09:31.401Z,133.67
2018-11-21T00:12:11.246Z,135.90
2018-11-21T00:14:51.328Z,133.03
2018-11-21T00:17:31.624Z,132.77
2018-11-21T00:20:12.333Z,132.27
2018-11-21T00:22:53.125Z,130.20
2018-11-21T00:25:33.250Z,125.60
2018-11-21T00:28:13.194Z,132.53
2018-11-21T00:30:52.918Z,127.33
2018-11-21T00:33:32.922Z,129.77
2018-11-21T00:36:12.501Z,130.63
2018-11-21T00:38:52.160Z,133.63
2018-11-21T00:41:31.857Z,132.87
2018-11-21T00:44:12.098Z,131.40
2018-11-21T00:46:52.327Z,136.10
2018-11-21T00:49:31.840Z,127.63
2018-11-21T00:52:11.948Z,126.57
2018-11-21T00:54:51.971Z,129.40
2018-11-21T00:57:31.803Z,126.13
2018-11-21T01:00:12.352Z,128.27
2018-11-21T01:02:52.321Z,130.23
2018-11-21T01:05:31.749Z,126.07
2018-11-21T01:08:11.798Z,129.67
2018-11-21T01:10:51.779Z,139.77
2018-11-21T01:13:31.477Z,133.60
2018-11-21T01:16:11.508Z,127.10
2018-11-21T01:18:51.270Z,126.67
2018-11-21T01:21:31.036Z,129.77
2018-11-21T01:24:10.944Z,125.83
2018-11-21T01:26:51.274Z,130.20
2018-11-21T01:29:30.958Z,128.47
2018-11-21T01:32:10.827Z,131.87
2018-11-21T01:34:51.288Z,131.27
2018-11-21T01:37:31.361Z,125.73
2018-11-21T01:40:11.271Z,127.10
2018-11-21T01:42:51.456Z,128.30
2018-11-21T01:45:31.333Z,127.80
2018-11-21T01:48:11.650Z,130.10
2018-11-21T01:50:51.114Z,124.90
2018-11-21T01:53:30.810Z,135.20
2018-11-21T01:56:10.344Z,131.67
2018-11-21T01:58:50.410Z,128.80
2018-11-21T02:01:30.424Z,133.03
2018-11-21T02:04:10.523Z,130.23
2018-11-21T02:06:50.119Z,132.87
2018-11-21T02:09:30.182Z,124.30
2018-11-21T02:12:10.162Z,131.97
2018-11-21T02:14:49.731Z,126.27
2018-11-21T02:17:29.571Z,133.20
2018-11-21T02:20:07.714Z,133.20
2018-11-21T02:22:54.316Z,129.60
2018-11-21T02:25:41.445Z,130.83
2018-11-21T02:28:28.292Z,133.10
2018-11-21T02:31:15.382Z,126.37
2018-11-21T02:34:02.269Z,131.17
2018-11-21T02:36:49.009Z,130.17
2018-11-21T02:39:35.553Z,134.37
2018-11-21T02:42:22.337Z,131.20
2018-11-21T02:45:09.418Z,131.27
2018-11-21T02:47:56.015Z,131.37
2018-11-21T02:50:42.627Z,134.70
2018-11-21T02:53:29.741Z,131.43
2018-11-21T02:56:16.415Z,133.90
2018-11-21T02:59:03.042Z,128.97
2018-11-21T03:01:50.412Z,133.53
2018-11-21T03:04:37.257Z,131.23
2018-11-21T03:07:23.847Z,130.47
2018-11-21T03:10:10.472Z,130.20
2018-11-21T03:12:57.147Z,130.27
2018-11-21T03:15:44.071Z,135.50
2018-11-21T03:18:30.664Z,133.17
2018-11-21T03:21:17.615Z,129.10
2018-11-21T03:24:04.524Z,134.37
2018-11-21T03:26:51.700Z,139.53
2018-11-21T03:29:38.585Z,135.77
2018-11-21T03:32:25.374Z,133.07
2018-11-21T03:35:12.049Z,133.87
2018-11-21T03:37:58.723Z,134.30
2018-11-21T03:40:45.310Z,130.77
2018-11-21T03:43:31.990Z,134.33
2018-11-21T03:46:18.573Z,138.83
2018-11-21T03:49:05.301Z,132.07
2018-11-21T03:51:51.896Z,137.30
2018-11-21T03:54:38.555Z,134.87
2018-11-21T03:57:25.879Z,133.57
2018-11-21T04:00:13.222Z,131.47
2018-11-21T04:02:59.828Z,133.37
2018-11-21T04:05:46.749Z,135.67
2018-11-21T04:08:33.351Z,133.80
2018-11-21T04:11:20.067Z,130.37
2018-11-21T04:14:06.995Z,134.80
2018-11-21T04:16:53.940Z,135.87
2018-11-21T04:19:40.536Z,137.70
2018-11-21T04:22:27.406Z,133.07
2018-11-21T04:25:14.007Z,136.63
2018-11-21T04:28:01.014Z,137.07
2018-11-21T04:30:47.840Z,135.30
2018-11-21T04:33:34.479Z,138.27
2018-11-21T04:36:21.649Z,137.30
2018-11-21T04:39:08.727Z,142.53
2018-11-21T04:41:55.581Z,142.87
2018-11-21T04:44:42.456Z,144.27
2018-11-21T04:47:21.981Z,136.97
2018-11-21T04:50:02.019Z,135.13
2018-11-21T04:52:41.661Z,136.13
2018-11-21T04:55:21.638Z,134.20
2018-11-21T04:58:01.335Z,138.63
2018-11-21T05:00:40.912Z,135.60
2018-11-21T05:03:20.963Z,138.53
2018-11-21T05:06:01.316Z,138.20
2018-11-21T05:08:40.987Z,138.03
2018-11-21T05:11:20.657Z,137.67
2018-11-21T05:14:00.158Z,138.07
2018-11-21T05:16:39.872Z,138.40
2018-11-21T05:19:19.591Z,147.20
2018-11-21T05:21:59.566Z,147.33
2018-11-21T05:24:39.014Z,148.07
2018-11-21T05:27:18.643Z,146.47
2018-11-21T05:29:58.436Z,144.37
2018-11-21T05:32:38.721Z,147.00
2018-11-21T05:35:18.631Z,143.10
2018-11-21T05:37:58.191Z,141.90
2018-11-21T05:40:38.173Z,141.00
2018-11-21T05:43:18.705Z,144.60
2018-11-21T05:45:59.255Z,147.07
2018-11-21T05:48:39.841Z,140.03
2018-11-21T05:51:20.190Z,138.57
2018-11-21T05:53:59.659Z,142.87
2018-11-21T05:56:39.734Z,141.97
2018-11-21T05:59:19.404Z,137.43
2018-11-21T06:01:59.068Z,143.27
2018-11-21T06:04:38.573Z,141.60
2018-11-21T06:07:18.357Z,142.60
2018-11-21T06:09:58.085Z,133.03
2018-11-21T06:12:38.499Z,140.30
2018-11-21T06:15:18.621Z,140.40
2018-11-21T06:17:58.726Z,134.97
2018-11-21T06:20:38.195Z,138.90
2018-11-21T06:23:18.011Z,140.73
2018-11-21T06:25:57.753Z,138.13
2018-11-21T06:28:38.371Z,143.43
2018-11-21T06:31:17.977Z,138.47
2018-11-21T06:33:57.868Z,145.23
2018-11-21T06:36:37.228Z,139.33
2018-11-21T06:39:18.176Z,139.37
2018-11-21T06:41:57.899Z,144.87
2018-11-21T06:44:37.559Z,137.27
2018-11-21T06:47:17.276Z,141.10
2018-11-21T06:49:57.657Z,137.53
2018-11-21T06:52:38.299Z,137.20
2018-11-21T06:55:18.002Z,139.33
2018-11-21T06:57:57.634Z,137.67
2018-11-21T07:00:37.757Z,140.50
2018-11-21T07:03:17.282Z,136.70
2018-11-21T07:05:57.307Z,143.27
2018-11-21T07:08:37.260Z,150.37
2018-11-21T07:11:17.167Z,147.77
2018-11-21T07:13:56.640Z,140.07
2018-11-21T07:16:37.330Z,140.50
2018-11-21T07:19:17.233Z,143.53
2018-11-21T07:21:56.853Z,140.67
2018-11-21T07:24:36.582Z,141.67
2018-11-21T07:27:16.426Z,140.90
2018-11-21T07:29:56.438Z,143.43
2018-11-21T07:32:38.610Z,140.47
2018-11-21T07:35:18.821Z,137.40
2018-11-21T07:37:59.059Z,146.30
2018-11-21T07:40:38.619Z,139.97
2018-11-21T07:43:18.792Z,146.87
2018-11-21T07:45:58.287Z,136.97
2018-11-21T07:48:38.168Z,142.47
2018-11-21T07:51:18.260Z,144.67
2018-11-21T07:53:58.513Z,141.07
2018-11-21T07:56:38.147Z,137.33
2018-11-21T07:59:17.658Z,135.30
2018-11-21T08:02:01.019Z,143.50
2018-11-21T08:05:07.240Z,142.10
2018-11-21T08:08:13.439Z,140.13
2018-11-21T08:11:20.165Z,139.40
2018-11-21T08:14:26.420Z,140.00
2018-11-21T08:17:32.634Z,139.90
2018-11-21T08:20:38.837Z,140.37
2018-11-21T08:23:45.439Z,143.43
2018-11-21T08:26:51.640Z,134.97
2018-11-21T08:29:38.541Z,138.47
2018-11-21T08:32:25.410Z,140.03
2018-11-21T08:35:12.065Z,142.00
2018-11-21T08:37:58.916Z,139.40
2018-11-21T08:40:45.637Z,136.43
2018-11-21T08:43:32.282Z,133.17
2018-11-21T08:46:19.006Z,141.17
2018-11-21T08:49:05.648Z,139.57
2018-11-21T08:51:52.571Z,140.83
2018-11-21T08:54:39.155Z,145.10
2018-11-21T08:57:25.793Z,135.67
2018-11-21T09:00:13.170Z,141.73
2018-11-21T09:02:59.891Z,138.37
2018-11-21T09:05:27.037Z,139.50
2018-11-21T09:08:14.433Z,136.77
2018-11-21T09:11:01.024Z,134.97
2018-11-21T09:13:47.761Z,136.30
2018-11-21T09:16:34.335Z,136.40
2018-11-21T09:19:20.955Z,139.73
2018-11-21T09:22:07.997Z,134.30
2018-11-21T09:24:54.786Z,136.37
2018-11-21T09:27:42.128Z,137.10
2018-11-21T09:30:28.765Z,140.77
2018-11-21T09:33:15.696Z,142.47
2018-11-21T09:36:02.541Z,136.17
2018-11-21T09:38:49.223Z,139.47
2018-11-21T09:41:36.068Z,134.40
2018-11-21T09:44:23.063Z,135.10
2018-11-21T09:47:09.699Z,133.73
2018-11-21T09:49:56.731Z,138.40
2018-11-21T09:52:43.416Z,136.67
2018-11-21T09:55:23.173Z,135.53
2018-11-21T09:58:03.330Z,140.37
2018-11-21T10:00:44.573Z,139.23
2018-11-21T10:03:34.751Z,139.80
2018-11-21T10:06:14.811Z,135.50
2018-11-21T10:08:57.127Z,135.53
2018-11-21T10:11:36.964Z,135.30
2018-11-21T10:14:16.828Z,144.93
2018-11-21T10:16:56.678Z,137.70
2018-11-21T10:19:36.360Z,140.63
2018-11-21T10:22:16.044Z,141.97
2018-11-21T10:24:55.777Z,137.53
2018-11-21T10:27:35.539Z,141.03
2018-11-21T10:30:15.057Z,139.33
2018-11-21T10:32:54.871Z,144.10
2018-11-21T10:35:36.032Z,141.57
2018-11-21T10:38:13.840Z,132.47
2018-11-21T10:40:53.780Z,137.97
2018-11-21T10:43:34.306Z,138.07
2018-11-21T10:46:13.832Z,141.33
2018-11-21T10:48:53.227Z,136.73
2018-11-21T10:51:33.111Z,137.17
2018-11-21T10:54:12.888Z,142.90
2018-11-21T10:56:53.489Z,137.87
2018-11-21T10:59:33.719Z,141.60
2018-11-21T11:02:33.299Z,137.47
2018-11-21T11:05:33.090Z,136.93
2018-11-21T11:08:33.051Z,137.67
2018-11-21T11:11:32.942Z,135.87
2018-11-21T11:14:32.640Z,139.80
2018-11-21T11:17:31.654Z,143.40
2018-11-21T11:20:31.179Z,137.57
2018-11-21T11:23:30.862Z,138.43
2018-11-21T11:26:30.661Z,135.83
2018-11-21T11:29:30.368Z,134.30
2018-11-21T11:32:30.215Z,141.83
2018-11-21T11:35:29.892Z,147.07
2018-11-21T11:38:29.635Z,139.90
2018-11-21T11:41:35.609Z,138.77
2018-11-21T11:44:35.135Z,136.03
2018-11-21T11:47:34.810Z,141.20
2018-11-21T11:50:39.761Z,139.57
2018-11-21T11:53:38.739Z,142.90
2018-11-21T11:56:38.502Z,144.57
2018-11-21T11:59:38.147Z,144.90
2018-11-21T12:02:37.951Z,141.67
2018-11-21T12:05:30.993Z,144.00
2018-11-21T12:08:24.454Z,142.70
2018-11-21T12:11:23.725Z,142.80
2018-11-21T12:14:29.724Z,142.13
2018-11-21T12:17:29.394Z,144.57
2018-11-21T12:20:28.771Z,141.47
2018-11-21T12:23:28.427Z,137.03
2018-11-21T12:26:34.357Z,136.30
2018-11-21T12:29:33.881Z,142.47
2018-11-21T12:32:39.285Z,139.10
2018-11-21T12:35:26.506Z,144.70
2018-11-21T12:38:28.787Z,141.60
2018-11-21T12:41:28.627Z,143.23
2018-11-21T12:44:28.451Z,142.10
2018-11-21T12:47:28.208Z,136.77
2018-11-21T12:50:28.036Z,147.67
2018-11-21T12:53:27.764Z,146.93
2018-11-21T12:56:27.511Z,142.07
2018-11-21T12:59:18.479Z,138.87
2018-11-21T13:02:17.603Z,140.37
2018-11-21T13:05:17.362Z,136.77
2018-11-21T13:08:17.289Z,139.40
2018-11-21T13:11:17.123Z,132.80
2018-11-21T13:14:16.798Z,137.10
2018-11-21T13:17:22.617Z,140.77
2018-11-21T13:20:22.451Z,133.67
2018-11-21T13:23:25.094Z,142.00
2018-11-21T13:26:27.711Z,145.30
2018-11-21T13:29:27.313Z,142.27
2018-11-21T13:32:19.015Z,135.67
2018-11-21T13:35:18.502Z,133.20
2018-11-21T13:38:23.253Z,135.53
2018-11-21T13:41:18.172Z,141.33
2018-11-21T13:44:18.011Z,141.63
2018-11-21T13:47:12.033Z,141.87
2018-11-21T13:50:11.004Z,137.53
2018-11-21T13:53:09.965Z,146.03
2018-11-21T13:55:50.196Z,137.87
2018-11-21T13:58:29.859Z,142.87
2018-11-21T14:01:10.030Z,139.97
2018-11-21T14:03:49.460Z,141.63
2018-11-21T14:06:29.329Z,139.27
2018-11-21T14:09:09.171Z,149.47
2018-11-21T14:11:49.972Z,149.77
2018-11-21T14:14:30.201Z,143.50
2018-11-21T14:17:10.456Z,149.07
2018-11-21T14:19:50.101Z,143.90
2018-11-21T14:22:29.983Z,149.67
2018-11-21T14:25:10.291Z,143.73
2018-11-21T14:27:50.506Z,145.97
2018-11-21T14:30:30.183Z,148.50
2018-11-21T14:33:10.083Z,143.70
2018-11-21T14:35:52.304Z,142.93
2018-11-21T14:38:30.142Z,141.97
2018-11-21T14:41:09.676Z,144.67
2018-11-21T14:43:49.275Z,142.93
2018-11-21T14:46:28.839Z,148.80
2018-11-21T14:49:08.610Z,139.50
2018-11-21T14:51:48.956Z,142.87
2018-11-21T14:54:29.037Z,139.53
2018-11-21T14:57:08.619Z,144.40
2018-11-21T14:59:48.352Z,147.47
2018-11-21T15:02:28.161Z,146.27
2018-11-21T15:05:08.024Z,151.03
2018-11-21T15:07:48.154Z,146.77
2018-11-21T15:10:27.961Z,145.83
2018-11-21T15:13:07.500Z,150.63
2018-11-21T15:15:47.253Z,144.53
2018-11-21T15:18:27.280Z,141.40
2018-11-21T15:21:07.245Z,145.20
2018-11-21T15:23:47.180Z,146.90
2018-11-21T15:26:26.735Z,141.67
2018-11-21T15:29:06.418Z,145.90
2018-11-21T15:31:46.429Z,145.17
2018-11-21T15:34:26.847Z,145.27
2018-11-21T15:37:06.736Z,144.73
2018-11-21T15:39:46.420Z,182.47
2018-11-21T15:42:26.183Z,161.70
2018-11-21T15:45:06.105Z,158.47
2018-11-21T15:47:45.883Z,158.57
2018-11-21T15:50:25.786Z,143.50
2018-11-21T15:53:05.425Z,141.20
2018-11-21T15:55:45.031Z,146.50
2018-11-21T15:58:25.091Z,146.37
2018-11-21T16:01:05.638Z,144.40
2018-11-21T16:03:45.167Z,146.23
2018-11-21T16:06:25.284Z,147.57
2018-11-21T16:09:05.891Z,145.20
2018-11-21T16:11:52.731Z,148.33
2018-11-21T16:14:40.248Z,138.27
2018-11-21T16:17:26.873Z,146.90
2018-11-21T16:20:14.644Z,149.07
2018-11-21T16:23:01.466Z,147.47
2018-11-21T16:25:48.771Z,150.53
2018-11-21T16:28:35.493Z,144.57
2018-11-21T16:31:22.391Z,148.50
2018-11-21T16:34:08.996Z,151.90
2018-11-21T16:36:55.838Z,145.60
2018-11-21T16:39:46.256Z,149.10
2018-11-21T16:42:33.450Z,144.50
2018-11-21T16:45:22.088Z,149.43
2018-11-21T16:48:02.152Z,143.10
2018-11-21T16:50:41.763Z,145.77
2018-11-21T16:53:22.344Z,146.53
2018-11-21T16:56:02.153Z,152.50
2018-11-21T16:58:42.247Z,149.57
2018-11-21T17:01:22.033Z,157.43
2018-11-21T17:04:01.893Z,147.20
2018-11-21T17:06:42.333Z,141.97
2018-11-21T17:09:22.820Z,147.77
2018-11-21T17:12:02.783Z,155.60
2018-11-21T17:14:42.625Z,151.03
2018-11-21T17:17:22.052Z,148.97
2018-11-21T17:20:02.407Z,147.17
2018-11-21T17:22:42.170Z,146.03
2018-11-21T17:25:23.577Z,150.53
2018-11-21T17:28:03.608Z,146.00
2018-11-21T17:30:43.235Z,145.30
2018-11-21T17:33:23.357Z,146.93
2018-11-21T17:36:02.956Z,151.27
2018-11-21T17:38:43.030Z,151.57
2018-11-21T17:41:24.033Z,152.07
2018-11-21T17:44:03.677Z,153.17
2018-11-21T17:46:43.309Z,148.33
2018-11-21T17:49:23.142Z,148.97
2018-11-21T17:52:02.661Z,150.43
2018-11-21T17:54:42.448Z,148.87
2018-11-21T17:57:27.891Z,151.07
2018-11-21T18:00:01.980Z,146.67
2018-11-21T18:02:41.611Z,153.57
2018-11-21T18:05:29.648Z,148.40
2018-11-21T18:08:09.686Z,152.73
2018-11-21T18:10:49.292Z,149.50
2018-11-21T18:13:29.011Z,149.47
2018-11-21T18:16:09.151Z,154.50
2018-11-21T18:18:49.473Z,153.17
2018-11-21T18:21:29.212Z,150.07
2018-11-21T18:24:09.573Z,152.03
2018-11-21T18:26:37.301Z,153.17
2018-11-21T18:29:24.161Z,158.50
2018-11-21T18:32:11.818Z,158.30
2018-11-21T18:34:40.599Z,153.83
2018-11-21T18:37:08.230Z,156.13
2018-11-21T18:39:55.501Z,155.60
2018-11-21T18:42:42.320Z,150.53
2018-11-21T18:45:40.556Z,156.67
2018-11-21T18:48:28.536Z,153.33
2018-11-21T18:50:57.529Z,154.57
2018-11-21T18:53:44.821Z,156.30
2018-11-21T18:56:35.962Z,158.00
2018-11-21T18:59:42.300Z,154.93
2018-11-21T19:02:28.918Z,157.83
2018-11-21T19:05:16.026Z,159.30
2018-11-21T19:08:02.715Z,155.93
2018-11-21T19:10:50.225Z,156.87
2018-11-21T19:13:38.441Z,155.40
2018-11-21T19:16:26.157Z,153.07
2018-11-21T19:19:13.313Z,155.97
2018-11-21T19:22:00.370Z,153.70
2018-11-21T19:24:47.141Z,151.87
2018-11-21T19:27:34.060Z,151.10
2018-11-21T19:30:21.811Z,154.93
2018-11-21T19:32:49.221Z,158.20
2018-11-21T19:35:35.858Z,154.30
2018-11-21T19:38:22.877Z,152.27
2018-11-21T19:41:09.767Z,151.90
2018-11-21T19:43:56.782Z,152.77
2018-11-21T19:46:43.392Z,152.57
2018-11-21T19:49:24.768Z,159.63
2018-11-21T19:52:05.073Z,157.97
2018-11-21T19:54:45.003Z,155.57
2018-11-21T19:57:25.357Z,152.00
2018-11-21T20:00:04.768Z,153.07
2018-11-21T20:02:45.447Z,159.30
2018-11-21T20:05:25.278Z,155.60
2018-11-21T20:08:05.410Z,150.47
2018-11-21T20:10:45.096Z,156.00
2018-11-21T20:13:24.592Z,151.63
2018-11-21T20:16:04.179Z,157.70
2018-11-21T20:18:43.896Z,152.07
2018-11-21T20:21:23.722Z,156.77
2018-11-21T20:24:03.826Z,148.60
2018-11-21T20:26:44.166Z,152.43
2018-11-21T20:29:23.908Z,157.60
2018-11-21T20:32:03.653Z,150.50
2018-11-21T20:34:43.303Z,158.80
2018-11-21T20:37:22.869Z,154.47
2018-11-21T20:40:02.828Z,155.20
2018-11-21T20:42:43.087Z,154.60
2018-11-21T20:45:24.807Z,156.47
2018-11-21T20:48:04.951Z,149.67
2018-11-21T20:50:44.717Z,159.03
2018-11-21T20:53:25.040Z,160.20
2018-11-21T20:56:04.882Z,163.90
2018-11-21T20:58:45.433Z,152.20
2018-11-21T21:01:26.376Z,163.43
2018-11-21T21:04:07.277Z,153.93
2018-11-21T21:06:47.401Z,156.73
2018-11-21T21:09:27.760Z,157.60
2018-11-21T21:12:07.715Z,158.00
2018-11-21T21:14:48.709Z,161.97
2018-11-21T21:17:28.683Z,159.70
2018-11-21T21:20:08.584Z,163.63
2018-11-21T21:22:50.193Z,157.33
2018-11-21T21:25:30.792Z,154.00
2018-11-21T21:28:11.093Z,154.07
2018-11-21T21:30:51.068Z,152.80
2018-11-21T21:33:31.743Z,156.77
2018-11-21T21:36:11.586Z,150.87
2018-11-21T21:38:51.069Z,157.37
2018-11-21T21:41:30.838Z,152.23
2018-11-21T21:44:10.348Z,155.87
2018-11-21T21:46:49.963Z,154.63
2018-11-21T21:49:33.024Z,157.93
2018-11-21T21:52:19.767Z,162.60
2018-11-21T21:55:07.022Z,153.13
2018-11-21T21:57:53.636Z,155.70
2018-11-21T22:00:40.476Z,160.43
2018-11-21T22:03:27.418Z,151.50
2018-11-21T22:06:13.917Z,152.10
2018-11-21T22:09:00.692Z,155.37
2018-11-21T22:11:48.912Z,152.30
2018-11-21T22:14:35.541Z,151.50
2018-11-21T22:17:22.131Z,156.77
2018-11-21T22:20:09.064Z,151.30
2018-11-21T22:22:55.507Z,150.17
2018-11-21T22:25:42.128Z,165.13
2018-11-21T22:28:28.818Z,154.97
2018-11-21T22:31:15.465Z,158.73
2018-11-21T22:33:43.237Z,158.87
2018-11-21T22:36:30.323Z,162.40
2018-11-21T22:39:17.578Z,154.87
2018-11-21T22:42:04.867Z,155.87
2018-11-21T22:44:51.188Z,152.27
2018-11-21T22:47:38.935Z,158.10
2018-11-21T22:50:22.993Z,158.57
2018-11-21T22:53:03.265Z,160.13
2018-11-21T22:55:42.613Z,154.13
2018-11-21T22:58:22.740Z,157.73
2018-11-21T23:01:03.206Z,151.87
2018-11-21T23:03:43.093Z,157.43
2018-11-21T23:06:23.206Z,155.67
2018-11-21T23:09:03.796Z,152.87
2018-11-21T23:11:44.016Z,151.90
2018-11-21T23:14:23.768Z,159.40
2018-11-21T23:17:04.215Z,149.63
2018-11-21T23:19:43.863Z,155.17
2018-11-21T23:22:23.539Z,151.23
2018-11-21T23:25:03.841Z,156.47
2018-11-21T23:27:44.150Z,152.87
2018-11-21T23:30:23.312Z,152.20
2018-11-21T23:33:10.555Z,157.67
2018-11-21T23:35:57.452Z,164.23
2018-11-21T23:38:44.158Z,154.27
2018-11-21T23:41:30.865Z,158.83
2018-11-21T23:44:18.048Z,152.17
2018-11-21T23:47:04.694Z,150.97
2018-11-21T23:49:51.278Z,157.83
2018-11-21T23:52:38.300Z,156.13
2018-11-21T23:55:24.900Z,157.73
2018-11-21T23:58:11.889Z,152.07
